createdAt,value
2022-09-29T00:00:11.480Z,83.94
2022-09-29T00:01:11.480Z,83.94
2022-09-29T00:02:11.587Z,81.98
2022-09-29T00:03:11.579Z,82.15
2022-09-29T00:04:11.491Z,81.93
2022-09-29T00:05:11.486Z,81.78
2022-09-29T00:06:11.490Z,81.58
2022-09-29T00:07:11.494Z,81.77
2022-09-29T00:08:11.497Z,81.98
2022-09-29T00:09:11.611Z,81.69
2022-09-29T00:10:11.486Z,81.24
2022-09-29T00:11:11.485Z,81.04
2022-09-29T00:12:11.484Z,81
2022-09-29T00:13:11.496Z,80.96
2022-09-29T00:14:11.521Z,81.01
2022-09-29T00:15:11.490Z,80.81
2022-09-29T00:19:11.499Z,81.81
2022-09-29T00:20:11.490Z,82.08
2022-09-29T00:21:11.493Z,81.95
2022-09-29T00:22:11.493Z,82.59
2022-09-29T00:23:11.514Z,83.31
2022-09-29T00:24:11.628Z,83.25
2022-09-29T00:25:11.494Z,83.12
2022-09-29T00:26:11.496Z,83.12
2022-09-29T00:27:11.489Z,82.01
2022-09-29T00:28:11.500Z,81.95
2022-09-29T00:29:11.488Z,81.57
2022-09-29T00:30:11.478Z,81.47
2022-09-29T00:31:11.558Z,81.29
2022-09-29T00:32:11.487Z,81.29
2022-09-29T00:33:11.498Z,81.75
2022-09-29T00:34:11.569Z,81.97
2022-09-29T00:35:11.501Z,81.83
2022-09-29T00:36:11.492Z,81.98
2022-09-29T00:37:11.493Z,81.97
2022-09-29T00:38:11.692Z,81.95
2022-09-29T00:39:11.485Z,81.93
2022-09-29T00:40:11.497Z,82.29
2022-09-29T00:41:11.502Z,82.13
2022-09-29T00:42:11.492Z,82
2022-09-29T00:43:11.496Z,82.48
2022-09-29T00:44:11.534Z,82.81
2022-09-29T00:45:11.483Z,83.28
2022-09-29T00:46:11.517Z,83.49
2022-09-29T00:47:11.479Z,83.2
2022-09-29T00:48:11.506Z,83
2022-09-29T00:49:11.485Z,82.51
2022-09-29T00:50:11.477Z,82.06
2022-09-29T00:51:11.485Z,81.61
2022-09-29T00:52:11.482Z,81.71
2022-09-29T00:53:11.515Z,81.25
2022-09-29T00:54:11.524Z,80.35
2022-09-29T00:55:11.482Z,80.35
2022-09-29T00:56:11.477Z,78.89
2022-09-29T00:57:11.484Z,78.75
2022-09-29T00:58:11.484Z,78.67
2022-09-29T00:59:11.484Z,78.58
2022-09-29T01:00:11.484Z,78.66
2022-09-29T01:01:11.616Z,79.06
2022-09-29T01:02:11.528Z,79.1
2022-09-29T01:03:11.492Z,79.06
2022-09-29T01:04:11.626Z,78.94
2022-09-29T01:05:11.484Z,78.95
2022-09-29T01:06:11.512Z,79.25
2022-09-29T01:07:11.494Z,80.11
2022-09-29T01:08:11.516Z,80.24
2022-09-29T01:09:11.503Z,80.24
2022-09-29T01:10:11.491Z,80.4
2022-09-29T01:11:11.499Z,80.51
2022-09-29T01:12:11.482Z,80.33
2022-09-29T01:13:11.501Z,80.83
2022-09-29T01:14:11.603Z,80.84
2022-09-29T01:15:11.497Z,80.57
2022-09-29T01:16:11.569Z,80.19
2022-09-29T01:17:11.496Z,79.85
2022-09-29T01:18:11.499Z,79.75
2022-09-29T01:19:11.509Z,79.83
2022-09-29T01:20:11.492Z,79.67
2022-09-29T01:21:11.494Z,79.65
2022-09-29T01:22:11.496Z,79.85
2022-09-29T01:23:11.587Z,80.13
2022-09-29T01:24:11.582Z,80.83
2022-09-29T01:25:11.484Z,81.37
2022-09-29T01:26:11.495Z,81.85
2022-09-29T01:27:11.533Z,82.12
2022-09-29T01:28:11.498Z,82.13
2022-09-29T01:29:11.497Z,82.7
2022-09-29T01:30:11.478Z,82.96
2022-09-29T01:31:11.531Z,82.65
2022-09-29T01:32:11.494Z,82.35
2022-09-29T01:33:11.495Z,82.31
2022-09-29T01:34:11.553Z,82.07
2022-09-29T01:35:11.493Z,82.33
2022-09-29T01:36:11.497Z,82.14
2022-09-29T01:37:11.487Z,81.78
2022-09-29T01:38:11.695Z,82.29
2022-09-29T01:39:11.485Z,82.68
2022-09-29T01:40:11.500Z,82.68
2022-09-29T01:41:11.491Z,82.5
2022-09-29T01:42:11.531Z,82.71
2022-09-29T01:43:11.492Z,82.62
2022-09-29T01:44:11.496Z,82.55
2022-09-29T01:45:11.494Z,82.13
2022-09-29T01:46:11.521Z,81.87
2022-09-29T01:47:11.496Z,81.84
2022-09-29T01:48:11.501Z,81.89
2022-09-29T01:49:11.497Z,82.34
2022-09-29T01:50:11.487Z,82.34
2022-09-29T01:51:11.498Z,83.14
2022-09-29T01:52:11.495Z,83.39
2022-09-29T01:53:11.522Z,83.65
2022-09-29T01:54:11.571Z,84.61
2022-09-29T01:55:11.491Z,85.01
2022-09-29T01:56:11.495Z,84.67
2022-09-29T01:57:11.482Z,83.99
2022-09-29T01:58:11.503Z,83.87
2022-09-29T01:59:11.493Z,83.75
2022-09-29T02:00:11.485Z,83.42
2022-09-29T02:01:11.579Z,83.33
2022-09-29T02:02:11.536Z,83.54
2022-09-29T02:03:11.502Z,83.86
2022-09-29T02:04:11.486Z,84.25
2022-09-29T02:05:11.478Z,84.16
2022-09-29T02:06:11.488Z,84.13
2022-09-29T02:07:11.484Z,83.33
2022-09-29T02:08:11.514Z,83.11
2022-09-29T02:09:11.490Z,83.36
2022-09-29T02:10:11.492Z,83.41
2022-09-29T02:11:11.477Z,83.26
2022-09-29T02:12:11.478Z,83.63
2022-09-29T02:13:11.491Z,83.63
2022-09-29T02:14:11.546Z,83.69
2022-09-29T02:15:11.485Z,83.01
2022-09-29T02:16:11.573Z,83.01
2022-09-29T02:17:11.494Z,82.46
2022-09-29T02:18:11.493Z,82.07
2022-09-29T02:19:11.488Z,81.96
2022-09-29T02:20:11.491Z,82.05
2022-09-29T02:27:11.526Z,83.51
2022-09-29T02:28:11.503Z,83.64
2022-09-29T02:29:11.492Z,84.34
2022-09-29T02:30:11.488Z,84.41
2022-09-29T02:31:11.507Z,83.99
2022-09-29T02:32:11.496Z,83.78
2022-09-29T02:33:11.508Z,84.03
2022-09-29T02:34:11.632Z,83.73
2022-09-29T02:35:11.499Z,83.53
2022-09-29T02:36:11.532Z,83.6
2022-09-29T02:37:11.496Z,83.78
2022-09-29T02:38:11.514Z,83.6
2022-09-29T02:39:11.516Z,83.46
2022-09-29T02:40:11.498Z,83.81
2022-09-29T02:41:11.493Z,84.13
2022-09-29T02:42:11.497Z,83.93
2022-09-29T02:43:11.507Z,83.98
2022-09-29T02:44:11.611Z,83.49
2022-09-29T02:45:11.493Z,83.53
2022-09-29T02:46:11.537Z,83.62
2022-09-29T02:47:11.492Z,83.51
2022-09-29T02:48:11.510Z,83.61
2022-09-29T02:49:11.499Z,83.92
2022-09-29T02:50:11.504Z,84.46
2022-09-29T02:51:11.480Z,85.39
2022-09-29T02:52:11.498Z,85.3
2022-09-29T02:53:11.507Z,84.51
2022-09-29T02:54:11.552Z,83.86
2022-09-29T02:55:11.497Z,83.57
2022-09-29T02:56:11.495Z,83.19
2022-09-29T02:57:11.501Z,83.39
2022-09-29T02:58:11.497Z,84.39
2022-09-29T02:59:11.503Z,85.11
2022-09-29T03:00:11.512Z,85.23
2022-09-29T03:01:11.539Z,84.86
2022-09-29T03:02:11.497Z,84.29
2022-09-29T03:03:11.524Z,83.85
2022-09-29T03:04:11.499Z,83.61
2022-09-29T03:05:11.499Z,83.69
2022-09-29T03:06:11.489Z,83.15
2022-09-29T03:07:11.491Z,82.78
2022-09-29T03:08:11.502Z,82.4
2022-09-29T03:09:11.510Z,82.45
2022-09-29T03:10:11.491Z,82.96
2022-09-29T03:11:11.494Z,83.58
2022-09-29T03:12:11.480Z,83.92
2022-09-29T03:13:11.494Z,84.06
2022-09-29T03:14:11.519Z,84.33
2022-09-29T03:15:11.486Z,84.6
2022-09-29T03:16:11.529Z,84.77
2022-09-29T03:17:11.520Z,84.91
2022-09-29T03:18:11.489Z,85.14
2022-09-29T03:19:11.483Z,85.46
2022-09-29T03:20:11.502Z,85.62
2022-09-29T03:21:11.484Z,85.72
2022-09-29T03:22:11.486Z,85.88
2022-09-29T03:23:11.492Z,85.79
2022-09-29T03:24:11.514Z,85.58
2022-09-29T03:25:11.484Z,85.67
2022-09-29T03:26:11.488Z,85.54
2022-09-29T03:27:11.496Z,85.37
2022-09-29T03:28:11.495Z,85.21
2022-09-29T03:29:11.494Z,84.9
2022-09-29T03:30:11.489Z,84.73
2022-09-29T03:31:11.512Z,84.01
2022-09-29T03:32:11.499Z,84.01
2022-09-29T03:33:11.512Z,83.31
2022-09-29T03:34:11.496Z,83.13
2022-09-29T03:35:11.502Z,83.05
2022-09-29T03:36:11.488Z,83.12
2022-09-29T03:37:11.492Z,83.28
2022-09-29T03:38:11.504Z,83.27
2022-09-29T03:39:11.507Z,83.43
2022-09-29T03:40:11.495Z,83.57
2022-09-29T03:41:11.494Z,83.8
2022-09-29T03:42:11.500Z,83.67
2022-09-29T03:43:11.498Z,83.35
2022-09-29T03:44:11.490Z,82.96
2022-09-29T03:45:11.503Z,83.17
2022-09-29T03:46:11.557Z,83.15
2022-09-29T03:47:11.492Z,83.14
2022-09-29T03:48:11.507Z,82.85
2022-09-29T03:49:11.497Z,82.49
2022-09-29T03:50:11.501Z,82.39
2022-09-29T03:51:11.499Z,82.18
2022-09-29T03:52:11.500Z,82.1
2022-09-29T03:53:11.581Z,82.36
2022-09-29T03:54:11.506Z,82.04
2022-09-29T03:55:11.492Z,89.4
2022-09-29T03:56:11.485Z,81.71
2022-09-29T03:57:11.492Z,82
2022-09-29T03:58:11.509Z,82.18
2022-09-29T03:59:11.557Z,81.95
2022-09-29T04:00:11.500Z,81.77
2022-09-29T04:01:11.635Z,81.77
2022-09-29T04:02:11.535Z,81.61
2022-09-29T04:03:11.508Z,81.6
2022-09-29T04:04:11.500Z,81.89
2022-09-29T04:05:11.497Z,82.17
2022-09-29T04:06:11.489Z,82.18
2022-09-29T04:07:11.488Z,82.75
2022-09-29T04:08:11.498Z,83.68
2022-09-29T04:09:11.603Z,84.2
2022-09-29T04:10:11.537Z,84.2
2022-09-29T04:11:11.497Z,83.81
2022-09-29T04:12:11.490Z,83.81
2022-09-29T04:13:11.510Z,83.23
2022-09-29T04:14:11.493Z,83.29
2022-09-29T04:15:11.506Z,83.4
2022-09-29T04:16:11.547Z,83.55
2022-09-29T04:17:11.494Z,83.27
2022-09-29T04:18:11.508Z,83.28
2022-09-29T04:19:11.544Z,83.28
2022-09-29T04:20:11.483Z,83.06
2022-09-29T04:21:11.498Z,83.36
2022-09-29T04:22:11.499Z,83.66
2022-09-29T04:23:11.492Z,83.56
2022-09-29T04:24:11.512Z,83.72
2022-09-29T04:25:11.484Z,83.29
2022-09-29T04:26:11.481Z,82.89
2022-09-29T04:27:11.488Z,82.32
2022-09-29T04:28:11.488Z,82.12
2022-09-29T04:29:11.549Z,82
2022-09-29T04:30:11.487Z,82.78
2022-09-29T04:31:11.545Z,83.75
2022-09-29T04:32:11.484Z,83.39
2022-09-29T04:33:11.544Z,83.51
2022-09-29T04:34:11.487Z,83.95
2022-09-29T04:35:11.480Z,84.1
2022-09-29T04:36:11.488Z,84.24
2022-09-29T04:37:11.503Z,84.68
2022-09-29T04:38:11.493Z,85.69
2022-09-29T04:39:11.649Z,85.95
2022-09-29T04:40:11.496Z,85.87
2022-09-29T04:41:11.496Z,85.51
2022-09-29T04:42:11.494Z,85.07
2022-09-29T04:43:11.526Z,84.42
2022-09-29T04:44:11.530Z,84.15
2022-09-29T04:45:11.492Z,83.78
2022-09-29T04:46:11.587Z,83.58
2022-09-29T04:47:11.486Z,83.29
2022-09-29T04:48:11.507Z,83.46
2022-09-29T04:49:11.537Z,83.27
2022-09-29T04:50:11.488Z,83.3
2022-09-29T04:51:11.504Z,82.86
2022-09-29T04:52:11.488Z,82.69
2022-09-29T04:53:11.504Z,82.83
2022-09-29T04:54:11.510Z,82.97
2022-09-29T04:55:11.498Z,83.08
2022-09-29T04:56:11.492Z,82.72
2022-09-29T04:57:11.498Z,82.78
2022-09-29T04:58:11.505Z,82.97
2022-09-29T04:59:11.652Z,82.97
2022-09-29T05:00:11.496Z,81.97
2022-09-29T05:01:11.561Z,81.83
2022-09-29T05:02:11.548Z,81.9
2022-09-29T05:03:11.506Z,81.78
2022-09-29T05:04:11.499Z,81.97
2022-09-29T05:05:11.500Z,81.77
2022-09-29T05:06:11.498Z,81.87
2022-09-29T05:07:11.498Z,82.03
2022-09-29T05:08:11.503Z,81.97
2022-09-29T05:09:11.556Z,81.9
2022-09-29T05:10:11.486Z,81.55
2022-09-29T05:11:11.535Z,81.76
2022-09-29T05:12:11.491Z,82.5
2022-09-29T05:13:11.504Z,82.55
2022-09-29T05:14:11.509Z,83.49
2022-09-29T05:15:11.504Z,83.38
2022-09-29T05:16:11.543Z,82.94
2022-09-29T05:17:11.498Z,82.35
2022-09-29T05:18:11.499Z,82.02
2022-09-29T05:19:11.570Z,81.81
2022-09-29T05:20:11.495Z,81.55
2022-09-29T05:21:26.648Z,81.54
2022-09-29T05:22:11.506Z,81.37
2022-09-29T05:23:11.508Z,81.39
2022-09-29T05:24:11.516Z,81.66
2022-09-29T05:25:11.508Z,81.53
2022-09-29T05:26:11.505Z,81.37
2022-09-29T05:27:11.498Z,81.15
2022-09-29T05:28:11.506Z,80.88
2022-09-29T05:29:11.549Z,80.94
2022-09-29T05:30:11.625Z,81.14
2022-09-29T05:31:11.522Z,81.27
2022-09-29T05:32:11.485Z,81.08
2022-09-29T05:33:11.493Z,81.08
2022-09-29T05:34:11.484Z,81.46
2022-09-29T05:35:11.480Z,81.29
2022-09-29T05:36:11.485Z,81.22
2022-09-29T05:37:11.485Z,81.46
2022-09-29T05:38:11.490Z,81.46
2022-09-29T05:39:11.564Z,81.45
2022-09-29T05:40:11.491Z,81.23
2022-09-29T05:41:11.480Z,80.79
2022-09-29T05:42:11.484Z,80.56
2022-09-29T05:43:11.492Z,80.78
2022-09-29T05:44:11.485Z,80.92
2022-09-29T05:45:11.480Z,80.77
2022-09-29T05:46:11.530Z,80.96
2022-09-29T05:47:11.480Z,80.87
2022-09-29T05:48:11.493Z,80.93
2022-09-29T05:49:11.484Z,81.32
2022-09-29T05:50:11.485Z,81.54
2022-09-29T05:51:11.500Z,81.33
2022-09-29T05:52:11.497Z,81.03
2022-09-29T05:53:11.511Z,80.86
2022-09-29T05:54:11.523Z,80.81
2022-09-29T05:55:11.493Z,81.19
2022-09-29T05:56:11.494Z,81.57
2022-09-29T05:57:11.497Z,81.62
2022-09-29T05:58:11.508Z,81.4
2022-09-29T05:59:11.655Z,81.01
2022-09-29T06:00:11.497Z,80.89
2022-09-29T06:01:11.566Z,80.79
2022-09-29T06:02:11.563Z,80.8
2022-09-29T06:03:11.504Z,81.2
2022-09-29T06:04:11.492Z,81.31
2022-09-29T06:05:11.491Z,81.18
2022-09-29T06:06:11.504Z,80.69
2022-09-29T06:07:11.492Z,80.67
2022-09-29T06:08:11.501Z,80.49
2022-09-29T06:09:11.532Z,80.32
2022-09-29T06:10:11.505Z,79.88
2022-09-29T06:11:11.574Z,79.85
2022-09-29T06:12:11.487Z,80.03
2022-09-29T06:13:11.506Z,80.06
2022-09-29T06:14:11.500Z,80.05
2022-09-29T06:15:11.497Z,79.75
2022-09-29T06:16:11.607Z,79.87
2022-09-29T06:17:11.493Z,80.01
2022-09-29T06:18:11.497Z,80.15
2022-09-29T06:19:11.604Z,80.72
2022-09-29T06:20:11.508Z,81.04
2022-09-29T06:21:11.532Z,81.24
2022-09-29T06:22:11.494Z,81.4
2022-09-29T06:23:11.505Z,81.29
2022-09-29T06:24:11.576Z,81.45
2022-09-29T06:25:11.498Z,81.65
2022-09-29T06:26:11.497Z,81.83
2022-09-29T06:27:11.498Z,81.6
2022-09-29T06:28:11.514Z,81.25
2022-09-29T06:29:11.494Z,80.83
2022-09-29T06:30:11.503Z,80.42
2022-09-29T06:31:11.500Z,80.72
2022-09-29T06:32:11.611Z,81.14
2022-09-29T06:33:11.509Z,81.45
2022-09-29T06:34:11.499Z,81.71
2022-09-29T06:35:11.501Z,82
2022-09-29T06:36:11.501Z,81.6
2022-09-29T06:37:11.495Z,81.73
2022-09-29T06:38:11.503Z,82.29
2022-09-29T06:39:11.683Z,82.34
2022-09-29T06:40:11.557Z,82.59
2022-09-29T06:41:11.497Z,82.89
2022-09-29T06:42:11.503Z,82.97
2022-09-29T06:43:11.516Z,83.24
2022-09-29T06:44:11.489Z,83.2
2022-09-29T06:45:11.486Z,82.6
2022-09-29T06:46:11.547Z,82.77
2022-09-29T06:47:11.485Z,82.64
2022-09-29T06:48:11.493Z,82.37
2022-09-29T06:49:11.637Z,82.6
2022-09-29T06:50:17.170Z,82.78
2022-09-29T06:51:11.484Z,82.8
2022-09-29T06:52:19.906Z,82.79
2022-09-29T06:53:11.496Z,82.71
2022-09-29T06:54:12.308Z,82.8
2022-09-29T06:55:11.480Z,82.86
2022-09-29T06:56:11.485Z,82.8
2022-09-29T06:57:11.483Z,82.72
2022-09-29T06:58:11.491Z,82.87
2022-09-29T06:59:11.499Z,82.93
2022-09-29T07:00:11.491Z,83
2022-09-29T07:01:11.588Z,83.15
2022-09-29T07:02:11.594Z,82.82
2022-09-29T07:03:11.500Z,82.97
2022-09-29T07:04:11.502Z,82.83
2022-09-29T07:05:11.502Z,82.75
2022-09-29T07:06:20.055Z,82.91
2022-09-29T07:07:11.502Z,82.77
2022-09-29T07:08:11.508Z,83.11
2022-09-29T07:09:11.647Z,83.48
2022-09-29T07:10:11.494Z,83.86
2022-09-29T07:11:11.492Z,84.03
2022-09-29T07:12:11.500Z,84.07
2022-09-29T07:13:11.504Z,84.95
2022-09-29T07:14:11.533Z,85.86
2022-09-29T07:15:11.500Z,86.22
2022-09-29T07:16:11.545Z,86.26
2022-09-29T07:17:11.504Z,86.13
2022-09-29T07:18:11.503Z,85.94
2022-09-29T07:19:11.494Z,85.6
2022-09-29T07:20:11.615Z,85.31
2022-09-29T07:21:11.483Z,85.13
2022-09-29T07:22:11.481Z,85.05
2022-09-29T07:23:11.558Z,85.21
2022-09-29T07:24:11.516Z,85.15
2022-09-29T07:25:19.281Z,84.94
2022-09-29T07:26:11.495Z,84.78
2022-09-29T07:27:11.504Z,84.43
2022-09-29T07:28:11.504Z,84.11
2022-09-29T07:29:15.510Z,83.41
2022-09-29T07:30:11.492Z,83.25
2022-09-29T07:31:14.878Z,83.19
2022-09-29T07:32:20.007Z,82.6
2022-09-29T07:33:11.582Z,83.58
2022-09-29T07:34:11.499Z,84.03
2022-09-29T07:35:11.495Z,83.75
2022-09-29T07:36:11.492Z,83.77
2022-09-29T07:37:11.507Z,83.77
2022-09-29T07:38:11.501Z,83.64
2022-09-29T07:39:11.518Z,83.58
2022-09-29T07:40:11.489Z,83.7
2022-09-29T07:41:11.567Z,83.82
2022-09-29T07:42:11.510Z,83.79
2022-09-29T07:43:11.506Z,83.35
2022-09-29T07:44:11.695Z,83.48
2022-09-29T07:45:11.496Z,83.76
2022-09-29T07:46:11.613Z,83.93
2022-09-29T07:47:11.498Z,83.83
2022-09-29T07:48:11.498Z,83.64
2022-09-29T07:49:11.678Z,83.05
2022-09-29T07:50:11.502Z,82.54
2022-09-29T07:51:11.504Z,82
2022-09-29T07:52:12.151Z,81.8
2022-09-29T07:53:11.499Z,82.02
2022-09-29T07:54:11.570Z,81.1
2022-09-29T07:55:11.482Z,80.46
2022-09-29T07:56:11.579Z,80.32
2022-09-29T07:57:11.742Z,80.39
2022-09-29T07:58:11.503Z,80.07
2022-09-29T07:59:11.507Z,80.14
2022-09-29T08:00:11.494Z,81
2022-09-29T08:01:11.526Z,81.13
2022-09-29T08:02:11.598Z,80.53
2022-09-29T08:03:11.489Z,79.43
2022-09-29T08:04:11.643Z,79
2022-09-29T08:05:11.480Z,78.2
2022-09-29T08:06:11.487Z,78.09
2022-09-29T08:07:11.489Z,78.46
2022-09-29T08:08:11.489Z,78.43
2022-09-29T08:09:11.536Z,77.7
2022-09-29T08:10:17.370Z,77.63
2022-09-29T08:11:20.841Z,77.58
2022-09-29T08:12:11.500Z,76.91
2022-09-29T08:13:11.502Z,75.94
2022-09-29T08:14:11.501Z,77.14
2022-09-29T08:15:11.498Z,77.32
2022-09-29T08:17:42.144Z,78.26
2022-09-29T08:18:40.963Z,77.19
2022-09-29T08:19:40.959Z,77.48
2022-09-29T08:20:40.964Z,77.89
2022-09-29T08:21:40.960Z,77.08
2022-09-29T08:25:43.952Z,75.57
2022-09-29T08:26:43.499Z,74.27
2022-09-29T08:27:49.741Z,73.65
2022-09-29T08:28:40.950Z,73.06
2022-09-29T08:29:45.662Z,72.5
2022-09-29T08:30:41.379Z,72.67
2022-09-29T08:31:40.984Z,72.94
2022-09-29T08:32:40.948Z,72.89
2022-09-29T08:33:40.942Z,72.11
2022-09-29T08:34:40.943Z,71.17
2022-09-29T08:35:40.950Z,71.17
2022-09-29T08:36:40.936Z,71.3
2022-09-29T08:37:40.937Z,70.89
2022-09-29T08:38:40.935Z,70.52
2022-09-29T08:39:40.936Z,69.89
2022-09-29T08:40:41.027Z,70.02
2022-09-29T08:41:40.962Z,68.69
2022-09-29T08:42:47.439Z,69.12
2022-09-29T08:43:40.997Z,70.32
2022-09-29T08:44:41.648Z,70.82
2022-09-29T08:45:55.527Z,69.12
2022-09-29T08:46:40.972Z,69.43
2022-09-29T08:47:46.055Z,70.23
2022-09-29T08:48:53.786Z,69.98
2022-09-29T08:49:40.943Z,70.76
2022-09-29T08:50:41.789Z,71.18
2022-09-29T08:51:42.620Z,71.08
2022-09-29T08:52:51.596Z,70.94
2022-09-29T08:53:41.059Z,70.39
2022-09-29T08:54:42.984Z,70.33
2022-09-29T08:55:40.937Z,70.6
2022-09-29T08:56:40.976Z,71.06
2022-09-29T08:57:40.926Z,70.61
2022-09-29T08:58:40.940Z,70.28
2022-09-29T08:59:40.930Z,70.43
2022-09-29T09:00:41.635Z,70.29
2022-09-29T09:01:40.929Z,70
2022-09-29T09:02:40.949Z,70.12
2022-09-29T09:03:40.937Z,70.14
2022-09-29T09:04:40.945Z,69.96
2022-09-29T09:05:40.944Z,70.19
2022-09-29T09:06:41.009Z,70.46
2022-09-29T09:07:40.940Z,71.25
2022-09-29T09:08:41.020Z,71.99
2022-09-29T09:09:40.959Z,72.44
2022-09-29T09:10:40.943Z,71.76
2022-09-29T09:11:40.933Z,71.64
2022-09-29T09:12:40.922Z,71.84
2022-09-29T09:13:40.935Z,72.16
2022-09-29T09:14:40.933Z,73.05
2022-09-29T09:15:40.918Z,72.85
2022-09-29T09:16:41.010Z,72.61
2022-09-29T09:17:40.917Z,73
2022-09-29T09:18:40.947Z,73.64
2022-09-29T09:19:40.919Z,73.46
2022-09-29T09:20:40.923Z,72.72
2022-09-29T09:21:40.917Z,72.43
2022-09-29T09:22:40.915Z,72.17
2022-09-29T09:23:40.936Z,71.85
2022-09-29T09:24:40.920Z,72.22
2022-09-29T09:25:40.936Z,71.68
2022-09-29T09:26:41.001Z,70.83
2022-09-29T09:27:40.929Z,70.66
2022-09-29T09:28:41.044Z,69.92
2022-09-29T09:29:40.927Z,69.63
2022-09-29T09:30:40.996Z,68.95
2022-09-29T09:31:40.940Z,68.92
2022-09-29T09:32:40.930Z,68.49
2022-09-29T09:33:40.933Z,69.38
2022-09-29T09:34:44.400Z,68.26
2022-09-29T09:35:52.698Z,67.6
2022-09-29T09:36:40.936Z,67.36
2022-09-29T09:37:40.915Z,67.03
2022-09-29T09:38:40.935Z,67.24
2022-09-29T09:39:40.926Z,67.83
2022-09-29T09:40:40.925Z,68.34
2022-09-29T09:41:40.942Z,68.29
2022-09-29T09:42:40.930Z,67.83
2022-09-29T09:43:40.933Z,68.41
2022-09-29T09:44:40.923Z,68.03
2022-09-29T09:45:41.015Z,67.01
2022-09-29T09:46:40.923Z,66.34
2022-09-29T09:47:40.957Z,66.16
2022-09-29T09:48:40.935Z,65.99
2022-09-29T09:49:40.934Z,66.31
2022-09-29T09:50:40.926Z,66
2022-09-29T09:51:40.957Z,65.2
2022-09-29T09:52:40.923Z,65.54
2022-09-29T09:53:40.982Z,66.74
2022-09-29T09:54:40.936Z,66.47
2022-09-29T09:55:40.920Z,66.19
2022-09-29T09:56:40.944Z,65.88
2022-09-29T09:57:40.919Z,65.03
2022-09-29T09:58:40.957Z,65.23
2022-09-29T09:59:40.927Z,65.23
2022-09-29T10:00:40.921Z,64.44
2022-09-29T10:01:40.990Z,64.21
2022-09-29T10:02:41.001Z,65.07
2022-09-29T10:03:40.935Z,65.98
2022-09-29T10:04:40.927Z,64.58
2022-09-29T10:05:40.922Z,64.23
2022-09-29T10:06:40.921Z,64.78
2022-09-29T10:07:40.926Z,65
2022-09-29T10:08:40.930Z,64.78
2022-09-29T10:09:41.001Z,65.25
2022-09-29T10:10:47.755Z,65.61
2022-09-29T10:11:40.940Z,65.94
2022-09-29T10:12:40.911Z,65.83
2022-09-29T10:13:40.942Z,64.53
2022-09-29T10:14:40.928Z,63.76
2022-09-29T10:15:40.923Z,63.62
2022-09-29T10:16:40.983Z,62.85
2022-09-29T10:17:40.924Z,62.51
2022-09-29T10:18:40.937Z,63.76
2022-09-29T10:19:40.934Z,64.44
2022-09-29T10:20:40.929Z,64.21
2022-09-29T10:21:40.916Z,64.23
2022-09-29T10:22:40.928Z,64.49
2022-09-29T10:23:40.941Z,63.62
2022-09-29T10:24:40.921Z,63.31
2022-09-29T10:25:40.918Z,63.42
2022-09-29T10:26:40.961Z,64
2022-09-29T10:27:40.935Z,63.21
2022-09-29T10:28:40.933Z,62.54
2022-09-29T10:29:40.934Z,62.41
2022-09-29T10:30:40.980Z,62.62
2022-09-29T10:31:41.039Z,62.42
2022-09-29T10:32:40.933Z,61.84
2022-09-29T10:33:40.949Z,60.96
2022-09-29T10:34:40.921Z,62.14
2022-09-29T10:35:40.929Z,61.53
2022-09-29T10:36:40.929Z,61.16
2022-09-29T10:37:40.919Z,62.06
2022-09-29T10:38:40.942Z,61.34
2022-09-29T10:39:40.934Z,62.26
2022-09-29T10:40:40.922Z,61.11
2022-09-29T10:41:40.936Z,61.87
2022-09-29T10:42:40.931Z,61.26
2022-09-29T10:43:40.933Z,61.61
2022-09-29T10:44:40.937Z,61.6
2022-09-29T10:45:40.967Z,62.46
2022-09-29T10:46:40.925Z,61.66
2022-09-29T10:47:40.919Z,61.4
2022-09-29T10:48:40.936Z,62.5
2022-09-29T10:49:40.920Z,62.1
2022-09-29T10:50:40.932Z,62.18
2022-09-29T10:51:40.923Z,62.15
2022-09-29T10:52:40.926Z,62.15
2022-09-29T10:53:40.927Z,62.73
2022-09-29T10:54:40.928Z,61.27
2022-09-29T10:55:40.925Z,61.99
2022-09-29T10:56:40.948Z,61.34
2022-09-29T10:57:40.926Z,61.81
2022-09-29T10:58:53.151Z,61.94
2022-09-29T10:59:40.933Z,62.71
2022-09-29T11:00:40.921Z,63.35
2022-09-29T11:01:40.921Z,62.75
2022-09-29T11:02:40.952Z,61.78
2022-09-29T11:03:40.927Z,62.13
2022-09-29T11:04:40.999Z,61.33
2022-09-29T11:05:40.930Z,60.35
2022-09-29T11:06:44.110Z,60.39
2022-09-29T11:07:40.925Z,61.11
2022-09-29T11:08:40.931Z,60.59
2022-09-29T11:09:41.021Z,61.08
2022-09-29T11:10:40.925Z,60.97
2022-09-29T11:11:40.935Z,61.42
2022-09-29T11:12:40.946Z,61.35
2022-09-29T11:13:40.944Z,61.81
2022-09-29T11:14:40.921Z,61.61
2022-09-29T11:15:40.925Z,61.29
2022-09-29T11:16:40.954Z,61.5
2022-09-29T11:17:41.063Z,61.57
2022-09-29T11:18:40.934Z,62.02
2022-09-29T11:19:40.937Z,61.97
2022-09-29T11:20:40.931Z,61.87
2022-09-29T11:21:40.924Z,62.97
2022-09-29T11:22:40.923Z,62.08
2022-09-29T11:23:40.941Z,61.57
2022-09-29T11:24:40.928Z,61.44
2022-09-29T11:25:40.932Z,62.05
2022-09-29T11:26:43.314Z,61.93
2022-09-29T11:27:40.924Z,61.88
2022-09-29T11:28:40.928Z,61.85
2022-09-29T11:29:40.935Z,62.29
2022-09-29T11:30:40.968Z,61.54
2022-09-29T11:31:40.920Z,62.04
2022-09-29T11:32:40.909Z,62.29
2022-09-29T11:33:40.937Z,62.72
2022-09-29T11:34:40.932Z,62.77
2022-09-29T11:35:40.928Z,61.69
2022-09-29T11:36:40.920Z,61.26
2022-09-29T11:37:40.926Z,61.74
2022-09-29T11:38:40.923Z,61.56
2022-09-29T11:39:40.997Z,60.56
2022-09-29T11:40:40.928Z,60.27
2022-09-29T11:41:40.967Z,59.65
2022-09-29T11:42:40.921Z,60.04
2022-09-29T11:43:41.025Z,60.46
2022-09-29T11:44:40.920Z,59.83
2022-09-29T11:45:41.003Z,60.36
2022-09-29T11:46:40.928Z,60.58
2022-09-29T11:47:40.923Z,60.53
2022-09-29T11:48:40.929Z,60.89
2022-09-29T11:49:40.946Z,60.5
2022-09-29T11:50:40.927Z,60.92
2022-09-29T11:51:40.928Z,61.48
2022-09-29T11:52:40.923Z,60.78
2022-09-29T11:53:40.935Z,61.28
2022-09-29T11:54:40.925Z,61.05
2022-09-29T11:55:40.930Z,61.72
2022-09-29T11:56:40.939Z,61.72
2022-09-29T11:57:40.933Z,61.42
2022-09-29T11:58:40.931Z,60.92
2022-09-29T11:59:40.925Z,60.58
2022-09-29T12:00:40.921Z,61.28
2022-09-29T12:01:40.918Z,61.49
2022-09-29T12:02:41.123Z,61.3
2022-09-29T12:03:40.928Z,61.23
2022-09-29T12:04:40.920Z,61
2022-09-29T12:05:40.923Z,61.23
2022-09-29T12:06:40.921Z,61.22
2022-09-29T12:07:40.915Z,61.03
2022-09-29T12:08:41.017Z,60.92
2022-09-29T12:09:40.964Z,60.97
2022-09-29T12:10:40.929Z,61.44
2022-09-29T12:11:54.731Z,61.52
2022-09-29T12:12:41.008Z,61.44
2022-09-29T12:13:40.934Z,61.68
2022-09-29T12:14:41.409Z,61.03
2022-09-29T12:15:41.214Z,60.2
2022-09-29T12:16:40.988Z,60.2
2022-09-29T12:17:40.921Z,60.51
2022-09-29T12:18:40.927Z,60.84
2022-09-29T12:19:40.941Z,61.72
2022-09-29T12:20:40.924Z,61.51
2022-09-29T12:21:40.940Z,62.11
2022-09-29T12:22:44.263Z,60.62
2022-09-29T12:23:40.940Z,60.87
2022-09-29T12:24:40.929Z,60.25
2022-09-29T12:25:40.921Z,60.89
2022-09-29T12:26:40.940Z,59.96
2022-09-29T12:27:40.926Z,59.88
2022-09-29T12:28:40.926Z,58.62
2022-09-29T12:29:40.920Z,58.32
2022-09-29T12:30:40.962Z,59.45
2022-09-29T12:31:40.928Z,60.68
2022-09-29T12:32:40.923Z,61.05
2022-09-29T12:33:40.937Z,61.23
2022-09-29T12:34:40.922Z,59.82
2022-09-29T12:35:40.936Z,61.13
2022-09-29T12:36:40.920Z,60.95
2022-09-29T12:37:40.914Z,60.74
2022-09-29T12:38:40.945Z,59.53
2022-09-29T12:39:40.929Z,59.88
2022-09-29T12:40:40.939Z,60.91
2022-09-29T12:41:41.000Z,59.61
2022-09-29T12:42:40.920Z,59.59
2022-09-29T12:43:40.928Z,60.29
2022-09-29T12:44:40.921Z,59.96
2022-09-29T12:45:40.928Z,61.25
2022-09-29T12:46:40.924Z,61.5
2022-09-29T12:47:40.920Z,62.11
2022-09-29T12:48:40.931Z,61.47
2022-09-29T12:49:40.913Z,62.89
2022-09-29T12:50:40.923Z,62.21
2022-09-29T12:51:40.928Z,61.72
2022-09-29T12:52:40.924Z,61.97
2022-09-29T12:53:40.938Z,62.8
2022-09-29T12:54:40.925Z,62.86
2022-09-29T12:55:40.948Z,62.97
2022-09-29T12:56:41.004Z,62.23
2022-09-29T12:57:40.937Z,62.55
2022-09-29T12:58:40.973Z,63.44
2022-09-29T12:59:40.924Z,62.35
2022-09-29T13:00:40.916Z,62.63
2022-09-29T13:01:41.037Z,62.6
2022-09-29T13:02:40.944Z,62.3
2022-09-29T13:03:40.923Z,62.42
2022-09-29T13:04:40.937Z,63.7
2022-09-29T13:05:40.926Z,63.34
2022-09-29T13:06:40.929Z,63.07
2022-09-29T13:07:40.926Z,62.8
2022-09-29T13:08:41.007Z,63
2022-09-29T13:09:40.989Z,63